Main page
METAR-TAF:

METAR-TAF

Airports :

Brighton, England

Shoreham Airport

latitude: 50-50N, longitude: 000-17W, elevation: 2 m

Current weather observation

The report was made 4 hours and 34 minutes ago, at 18:50 UTC
Wind 15 kt from the Southwest
Temperature 18°C
Humidity 88%
Pressure 1013 hPa
Visibility 10 km or more
Few clouds at a height of 700 ft
Scattered clouds at a height of 2400 ft

METAR: EGKA 171850Z 23015KT 9999 FEW007 SCT024 18/16 Q1013

Time: 00:24 (23:24 UTC)

Forecast

The report was made 9 hours and 23 minutes ago, at 14:01 UTC
Forecast valid from 17 at 15 UTC to 17 at 19 UTC
Wind 17 kt from the Southwest
Visibility 10 km or more
Scattered clouds at a height of 1500 ft
Probability 30% :
Temporary
from 17 at 15 UTC to 17 at 19 UTC
Wind 20 kt from the West/Southwest with gusts up to 30 kt
Visibility: 7000 m
rain showers

TAF: EGKA 171401Z 1715/1719 23017KT 9999 SCT015 PROB30 TEMPO 1715/1719 24020G30KT 7000 SHRA

Weather observations and forecasts of more than 4000 airports (METAR and TAF reports).

The available stations are represented by yellow and red dots on the map.

Hover mouse over dot to see the name of the station.

Then click to see weather observations and forecasts.

To change the map : click on the green buttons with a black cross to zoom in, on the green button with a dash to zoom out, or on the green arrows for adjacent maps.


METAR-TAF: